This is the latest recevied weather packets stored in our database for station/object WX5RP. If no packets are shown the sender has not sent any weather packets the latest 10 day(s).
| Time | Temp. | Humidity | Pressure | Rain* | Wind** | Luminosity | Snow |
|---|---|---|---|---|---|---|---|
| 1778322317 | -0.56° C | 78% | 1022.6 hPa | 0 mm | - | 0 W/m² | - |
| 1778321717 | 0° C | 78% | 1022.9 hPa | 0 mm | - | 0 W/m² | - |
| 1778321117 | 0.56° C | 77% | 1023 hPa | 0 mm | - | 0 W/m² | - |
| 1778320518 | 1.11° C | 77% | 1023 hPa | 0 mm | - | 0 W/m² | - |
| 1778319917 | 1.11° C | 75% | 1023.2 hPa | 0 mm | - | 0 W/m² | - |
| 1778319317 | 2.22° C | 75% | 1023.2 hPa | 0 mm | - | 0 W/m² | - |
| 1778318717 | 2.22° C | 74% | 1022.9 hPa | 0 mm | - | 0 W/m² | - |
| 1778318117 | 2.78° C | 76% | 1022.9 hPa | 0 mm | - | 0 W/m² | - |
| 1778317517 | 1.67° C | 76% | 1023 hPa | 0 mm | - | 0 W/m² | - |
| 1778316917 | 2.22° C | 73% | 1022.6 hPa | 0 mm | - | 0 W/m² | - |
| 1778316317 | 2.78° C | 74% | 1022.7 hPa | 0 mm | - | 0 W/m² | - |
| 1778315716 | 1.11° C | 74% | 1023 hPa | 0 mm | - | 0 W/m² | - |
| 1778315117 | 1.67° C | 73% | 1023 hPa | 0 mm | - | 0 W/m² | - |
| 1778314517 | 1.11° C | 74% | 1023 hPa | 0 mm | - | 0 W/m² | - |
| 1778313917 | 1.67° C | 73% | 1022.7 hPa | 0 mm | - | 0 W/m² | - |
| 1778313317 | 1.67° C | 71% | 1022.4 hPa | 0 mm | - | 0 W/m² | - |
| 1778312717 | 2.78° C | 68% | 1022.4 hPa | 0 mm | - | 0 W/m² | - |
| 1778312116 | 2.78° C | 68% | 1022.3 hPa | 0 mm | - | 0 W/m² | - |
| 1778311516 | 3.89° C | 65% | 1021.8 hPa | 0 mm | - | 0 W/m² | - |
| 1778310916 | 5.56° C | 60% | 1022.4 hPa | 0 mm | - | 0 W/m² | - |
| 1778310316 | 6.67° C | 58% | 1022.2 hPa | 0 mm | - | 0 W/m² | - |
| 1778309716 | 5° C | 65% | 1022.5 hPa | 0 mm | - | 0 W/m² | - |
| 1778309116 | 7.22° C | 59% | 1022.8 hPa | 0 mm | - | 0 W/m² | - |
| 1778308516 | 7.78° C | 55% | 1022.4 hPa | 0 mm | - | 0 W/m² | - |
| 1778307916 | 6.11° C | 64% | 1022.8 hPa | 0 mm | - | 0 W/m² | - |
* Rain latest hour (hover to see other rain measurements)
** Current wind speed in m/s (hover to see current wind gust speed)